Time;durP1;ratioP1;P1;durP2;ratioP2;P2;SDS_P1;SDS_P2;PMS_P1;PMS_P2;Temp;Humidity;BMP_temperature;BMP_pressure;BME280_temperature;BME280_humidity;BME280_pressure;Samples;Min_cycle;Max_cycle;Signal;HPM_P1;HPM_P2
2021/01/15 00:00:05;;;;;;;36.23;20.03;;;;;;;-3.90;74.07;98664.25;2294887;77;21165;-78
2021/01/15 00:03:08;;;;;;;33.77;19.20;;;;;;;-3.99;73.92;98658.94;2299461;77;21106;-78
2021/01/15 00:06:09;;;;;;;32.93;18.90;;;;;;;-4.09;74.14;98657.85;2305965;77;21681;-78
2021/01/15 00:09:10;;;;;;;32.97;19.50;;;;;;;-4.13;74.32;98650.39;2306777;77;21105;-79
2021/01/15 00:12:11;;;;;;;31.33;19.87;;;;;;;-4.15;74.56;98653.23;2307030;77;21121;-77
2021/01/15 00:15:12;;;;;;;36.73;20.10;;;;;;;-4.17;74.77;98649.31;2306115;77;21150;-78
2021/01/15 00:18:13;;;;;;;34.47;19.80;;;;;;;-4.18;74.71;98659.02;2306213;77;21122;-77
2021/01/15 00:21:14;;;;;;;35.83;19.57;;;;;;;-4.18;74.89;98648.81;2305511;77;21439;-78
2021/01/15 00:24:16;;;;;;;33.27;19.43;;;;;;;-4.19;74.82;98647.05;2305764;77;21109;-78
2021/01/15 00:27:17;;;;;;;36.90;20.20;;;;;;;-4.17;74.86;98654.80;2306600;77;21506;-77
2021/01/15 00:30:18;;;;;;;37.93;19.50;;;;;;;-4.19;74.83;98656.36;2306481;77;21097;-78
2021/01/15 00:33:19;;;;;;;33.50;19.80;;;;;;;-4.19;75.02;98658.52;2306512;77;21114;-78
2021/01/15 00:36:20;;;;;;;31.63;18.53;;;;;;;-4.14;75.00;98656.27;2306965;77;21093;-78
2021/01/15 00:39:21;;;;;;;36.37;20.13;;;;;;;-4.11;74.93;98656.87;2306838;77;21109;-79
2021/01/15 00:42:22;;;;;;;36.57;20.87;;;;;;;-4.07;74.92;98663.93;2307155;77;21141;-78
2021/01/15 00:45:23;;;;;;;34.47;19.67;;;;;;;-4.01;74.84;98668.16;2306678;77;21125;-78
2021/01/15 00:48:24;;;;;;;36.43;19.87;;;;;;;-3.99;74.69;98671.30;2306706;77;21121;-78
2021/01/15 00:51:27;;;;;;;39.73;21.03;;;;;;;-3.99;74.73;98671.30;2306704;77;21121;-78
2021/01/15 00:54:28;;;;;;;39.87;20.97;;;;;;;-4.01;74.69;98684.34;2306804;77;21336;-78
2021/01/15 00:57:29;;;;;;;39.90;21.50;;;;;;;-4.02;74.93;98676.59;2306497;77;21137;-77
2021/01/15 01:00:30;;;;;;;35.20;19.37;;;;;;;-3.99;75.03;98680.61;2307108;77;21279;-78
2021/01/15 01:03:31;;;;;;;39.70;21.23;;;;;;;-3.96;75.14;98682.09;2305879;77;21149;-78
2021/01/15 01:06:32;;;;;;;37.93;22.07;;;;;;;-3.93;75.10;98674.64;2305345;77;21090;-79
2021/01/15 01:09:34;;;;;;;39.27;21.23;;;;;;;-3.90;75.11;98672.29;2306021;77;21095;-78
2021/01/15 01:12:35;;;;;;;36.20;21.03;;;;;;;-3.89;75.12;98667.67;2305514;77;21403;-78
2021/01/15 01:15:36;;;;;;;37.23;22.17;;;;;;;-3.86;75.10;98667.87;2305996;77;21137;-78
2021/01/15 01:18:37;;;;;;;33.93;20.23;;;;;;;-3.81;75.12;98670.33;2305781;77;21440;-79
2021/01/15 01:21:38;;;;;;;38.53;21.27;;;;;;;-3.79;75.07;98670.43;2305581;77;21431;-78
2021/01/15 01:24:39;;;;;;;36.47;18.83;;;;;;;-3.77;75.12;98675.23;2305785;77;21085;-77
2021/01/15 01:27:40;;;;;;;36.40;20.03;;;;;;;-3.73;75.17;98674.27;2306057;77;21129;-78
2021/01/15 01:30:42;;;;;;;37.17;22.80;;;;;;;-3.71;75.06;98673.08;2306613;77;21085;-78
2021/01/15 01:33:44;;;;;;;40.43;22.23;;;;;;;-3.71;75.19;98674.36;2305527;77;21125;-78
2021/01/15 01:36:44;;;;;;;39.93;22.73;;;;;;;-3.68;75.15;98684.36;2304917;77;21407;-77
2021/01/15 01:39:46;;;;;;;37.77;21.23;;;;;;;-3.64;75.28;98677.80;2306626;77;21577;-78
2021/01/15 01:42:47;;;;;;;37.47;21.37;;;;;;;-3.63;75.32;98684.27;2306307;77;21078;-78
2021/01/15 01:45:48;;;;;;;40.37;22.77;;;;;;;-3.65;75.33;98688.78;2307180;77;21124;-79
2021/01/15 01:48:49;;;;;;;46.30;22.90;;;;;;;-3.66;75.28;98693.39;2306521;77;21114;-78
2021/01/15 01:51:50;;;;;;;44.17;24.57;;;;;;;-3.70;75.40;98691.42;2306156;77;21580;-78
2021/01/15 01:54:51;;;;;;;41.83;22.37;;;;;;;-3.72;75.44;98695.55;2306969;77;21121;-79
2021/01/15 01:57:52;;;;;;;44.30;23.03;;;;;;;-3.76;75.59;98687.20;2306785;77;21113;-78
2021/01/15 02:00:53;;;;;;;41.70;23.43;;;;;;;-3.78;75.68;98682.40;2306337;77;21412;-77
2021/01/15 02:03:54;;;;;;;39.77;21.00;;;;;;;-3.81;75.77;98685.63;2306064;77;21141;-78
2021/01/15 02:06:55;;;;;;;40.57;22.67;;;;;;;-3.83;75.47;98694.86;2306457;77;21078;-78
2021/01/15 02:09:56;;;;;;;47.10;24.27;;;;;;;-3.82;75.60;98709.38;2306358;77;21125;-78
2021/01/15 02:12:58;;;;;;;46.30;24.47;;;;;;;-3.82;75.40;98707.22;2306194;77;21251;-77
2021/01/15 02:15:59;;;;;;;45.10;23.93;;;;;;;-3.82;75.48;98712.31;2306193;77;21133;-78
2021/01/15 02:19:00;;;;;;;39.13;22.23;;;;;;;-3.81;75.75;98726.83;2305862;77;21618;-78
2021/01/15 02:22:01;;;;;;;42.30;23.20;;;;;;;-3.80;75.96;98735.86;2305947;77;21180;-78
2021/01/15 02:25:02;;;;;;;42.93;23.07;;;;;;;-3.79;75.35;98732.91;2306724;77;21109;-78
2021/01/15 02:28:03;;;;;;;48.37;24.93;;;;;;;-3.76;75.29;98737.83;2306471;77;21136;-78
2021/01/15 02:31:04;;;;;;;44.60;23.77;;;;;;;-3.72;75.06;98740.19;2306048;77;21121;-78
2021/01/15 02:34:08;;;;;;;44.90;23.20;;;;;;;-3.71;74.89;98738.13;2306574;77;21113;-78
2021/01/15 02:37:09;;;;;;;44.73;23.30;;;;;;;-3.69;74.94;98742.94;2306043;77;21141;-78
2021/01/15 02:40:10;;;;;;;46.13;23.87;;;;;;;-3.66;74.58;98755.50;2306087;77;21172;-78
2021/01/15 02:43:11;;;;;;;44.07;23.67;;;;;;;-3.65;74.59;98748.73;2306516;77;21415;-78
2021/01/15 02:46:12;;;;;;;42.93;22.00;;;;;;;-3.66;74.08;98755.50;2306932;77;21129;-77
2021/01/15 02:49:13;;;;;;;41.27;22.53;;;;;;;-3.69;74.23;98756.58;2306857;77;21395;-78
2021/01/15 02:52:14;;;;;;;40.63;22.00;;;;;;;-3.67;74.22;98764.33;2306309;77;21129;-78
2021/01/15 02:55:15;;;;;;;37.57;21.17;;;;;;;-3.65;74.22;98761.09;2306215;77;21153;-77
2021/01/15 02:58:17;;;;;;;39.23;20.37;;;;;;;-3.65;74.03;98764.03;2305314;77;21086;-77
2021/01/15 03:01:18;;;;;;;42.20;22.83;;;;;;;-3.64;74.17;98768.36;2306820;77;21388;-77
2021/01/15 03:04:19;;;;;;;39.40;21.90;;;;;;;-3.60;74.11;98765.22;2305878;77;21101;-77
2021/01/15 03:07:20;;;;;;;36.37;20.27;;;;;;;-3.56;74.17;98769.34;2305954;77;21133;-77
2021/01/15 03:10:21;;;;;;;39.13;21.27;;;;;;;-3.54;73.87;98766.90;2305943;77;21097;-77
2021/01/15 03:13:22;;;;;;;37.10;21.10;;;;;;;-3.55;73.85;98769.84;2305209;77;21239;-77
2021/01/15 03:16:23;;;;;;;36.20;19.53;;;;;;;-3.58;72.89;98778.96;2306644;77;21547;-79
2021/01/15 03:19:24;;;;;;;31.93;17.17;;;;;;;-3.68;72.94;98777.48;2306471;77;21167;-78
2021/01/15 03:22:25;;;;;;;34.07;18.67;;;;;;;-3.76;72.79;98780.30;2305676;77;21156;-79
2021/01/15 03:25:26;;;;;;;30.37;17.53;;;;;;;-3.79;73.04;98778.83;2306753;77;21129;-78
2021/01/15 03:28:27;;;;;;;30.83;17.17;;;;;;;-3.87;72.27;98785.58;2306494;77;21137;-78
2021/01/15 03:31:29;;;;;;;32.37;17.03;;;;;;;-3.93;72.49;98777.52;2307212;77;21533;-80
2021/01/15 03:34:30;;;;;;;28.03;15.13;;;;;;;-4.01;71.85;98773.58;2307162;77;21118;-79
2021/01/15 03:37:31;;;;;;;34.17;19.07;;;;;;;-4.04;72.37;98778.86;2306890;77;21458;-78
2021/01/15 03:40:32;;;;;;;62.13;30.80;;;;;;;-4.03;72.59;98784.06;2306889;77;21517;-79
2021/01/15 03:43:34;;;;;;;38.03;17.83;;;;;;;-4.04;71.88;98781.02;2306186;77;21133;-79
2021/01/15 03:46:35;;;;;;;39.83;18.80;;;;;;;-4.06;72.11;98788.06;2307180;77;21117;-79
2021/01/15 03:49:36;;;;;;;25.07;14.10;;;;;;;-4.07;72.08;98788.85;2306899;77;21381;-78
2021/01/15 03:52:37;;;;;;;33.63;17.77;;;;;;;-4.12;71.93;98791.48;2305808;77;21703;-78
2021/01/15 03:55:38;;;;;;;27.57;16.27;;;;;;;-4.15;71.88;98793.43;2305577;77;21117;-78
2021/01/15 03:58:39;;;;;;;25.57;15.00;;;;;;;-4.18;71.75;98800.87;2305772;77;21121;-79
2021/01/15 04:01:41;;;;;;;32.43;16.83;;;;;;;-4.25;70.92;98803.39;2306518;77;21513;-78
2021/01/15 04:04:48;;;;;;;28.57;15.83;;;;;;;-4.29;71.45;98800.53;2298716;77;21177;-78
2021/01/15 04:07:45;;;;;;;29.63;14.90;;;;;;;-4.38;71.54;98810.94;2293546;77;21505;-78
2021/01/15 04:10:46;;;;;;;26.77;15.40;;;;;;;-4.42;72.08;98797.49;2294740;77;21113;-79
2021/01/15 04:13:47;;;;;;;27.50;15.47;;;;;;;-4.41;71.93;98804.75;2295300;77;21127;-79
2021/01/15 04:16:48;;;;;;;34.90;16.17;;;;;;;-4.49;71.52;98810.59;2295486;77;21074;-78
2021/01/15 04:19:49;;;;;;;29.57;15.77;;;;;;;-4.55;71.73;98819.08;2295057;77;21129;-79
2021/01/15 04:22:50;;;;;;;27.77;15.17;;;;;;;-4.56;72.04;98816.92;2295678;78;21782;-78
2021/01/15 04:25:51;;;;;;;27.73;15.53;;;;;;;-4.57;71.69;98812.60;2295531;77;21070;-78
2021/01/15 04:28:52;;;;;;;25.57;13.90;;;;;;;-4.60;71.27;98811.12;2295720;77;21133;-79
2021/01/15 04:31:53;;;;;;;21.30;12.90;;;;;;;-4.65;71.09;98817.55;2296212;77;21090;-79
2021/01/15 04:34:54;;;;;;;19.90;11.43;;;;;;;-4.68;71.20;98824.09;2294687;77;21247;-79
2021/01/15 04:37:56;;;;;;;23.33;12.87;;;;;;;-4.73;71.47;98819.95;2294607;77;21101;-79
2021/01/15 04:40:57;;;;;;;26.20;13.80;;;;;;;-4.75;71.46;98824.05;2294272;77;21169;-79
2021/01/15 04:43:58;;;;;;;24.63;12.77;;;;;;;-4.76;71.62;98825.22;2293286;77;21118;-79
2021/01/15 04:46:59;;;;;;;23.07;12.97;;;;;;;-4.78;71.70;98823.83;2292923;78;21251;-78
2021/01/15 04:50:00;;;;;;;22.83;12.67;;;;;;;-4.80;71.37;98830.48;2292425;77;21098;-78
2021/01/15 04:53:01;;;;;;;17.70;10.60;;;;;;;-4.91;70.87;98833.92;2292508;77;21145;-79
2021/01/15 04:56:02;;;;;;;16.50;10.10;;;;;;;-5.09;71.03;98838.97;2291581;77;21110;-78
2021/01/15 04:59:03;;;;;;;17.90;10.63;;;;;;;-5.26;71.35;98854.25;2291132;77;21255;-79
2021/01/15 05:02:04;;;;;;;18.80;10.73;;;;;;;-5.38;71.82;98847.00;2293969;77;21283;-79
2021/01/15 05:05:06;;;;;;;15.87;9.83;;;;;;;-2.59;79.12;98852.69;2292194;77;21268;-79
2021/01/15 05:08:07;;;;;;;18.23;9.63;;;;;;;-2.95;66.81;98850.32;2292701;77;21110;-78
2021/01/15 05:11:08;;;;;;;15.13;9.57;;;;;;;-3.95;67.29;98854.30;2294421;77;21125;-79
2021/01/15 05:14:09;;;;;;;16.43;9.70;;;;;;;-4.56;68.49;98855.13;2293849;77;21457;-78
2021/01/15 05:17:10;;;;;;;14.90;9.53;;;;;;;-5.00;69.15;98867.25;2293286;77;21399;-77
2021/01/15 05:20:11;;;;;;;14.07;9.27;;;;;;;-5.33;69.53;98868.58;2294225;77;21126;-79
2021/01/15 05:23:12;;;;;;;18.27;9.17;;;;;;;-5.59;70.13;98871.34;2294299;77;21513;-79
2021/01/15 05:26:13;;;;;;;13.87;9.70;;;;;;;-5.77;70.59;98867.05;2292960;77;21110;-78
2021/01/15 05:29:14;;;;;;;19.10;10.23;;;;;;;-5.90;70.91;98874.55;2293334;77;21106;-79
2021/01/15 05:32:15;;;;;;;19.40;10.53;;;;;;;-6.01;71.15;98880.86;2293223;77;21394;-78
2021/01/15 05:35:16;;;;;;;16.37;10.23;;;;;;;-6.00;72.28;98885.17;2292932;77;21248;-79
2021/01/15 05:41:31;;;;;;;18.17;10.43;;;;;;;-6.09;71.63;98895.48;2258556;79;22162;-78
2021/01/15 05:44:32;;;;;;;15.63;10.43;;;;;;;-6.23;71.79;98897.36;2225531;80;21129;-76
2021/01/15 05:47:33;;;;;;;19.17;10.07;;;;;;;-6.34;72.12;98901.61;2224679;80;21244;-76
2021/01/15 05:50:34;;;;;;;21.10;10.67;;;;;;;-6.40;72.22;98899.86;2224825;80;21268;-77
2021/01/15 05:53:35;;;;;;;22.73;11.20;;;;;;;-6.47;72.36;98908.65;2224690;80;21479;-77
2021/01/15 05:56:36;;;;;;;22.50;11.63;;;;;;;-6.54;72.64;98910.20;2225245;80;21117;-77
2021/01/15 05:59:39;;;;;;;23.57;12.03;;;;;;;-6.60;72.66;98915.19;2224585;80;21292;-78
2021/01/15 06:02:40;;;;;;;20.87;12.20;;;;;;;-6.59;72.71;98919.50;2225146;80;21430;-77
2021/01/15 06:05:41;;;;;;;22.63;11.67;;;;;;;-6.60;72.79;98927.50;2225714;80;21248;-78
2021/01/15 06:08:43;;;;;;;21.20;11.67;;;;;;;-6.57;72.89;98931.93;2226141;80;21137;-78
2021/01/15 06:11:44;;;;;;;25.50;12.77;;;;;;;-6.55;72.98;98930.40;2224970;80;21530;-78
2021/01/15 06:14:49;;;;;;;47.80;17.80;;;;;;;-6.49;73.14;98932.16;2224989;80;21264;-77
2021/01/15 06:17:50;;;;;;;19.35;10.98;;;;;;;-6.46;72.96;98938.74;2224146;80;21221;-77
2021/01/15 06:20:51;;;;;;;23.07;11.90;;;;;;;-6.43;72.94;98938.98;2224341;80;21307;-78
2021/01/15 06:23:53;;;;;;;18.67;10.17;;;;;;;-6.38;73.10;98949.50;2224555;80;21263;-78
2021/01/15 06:26:54;;;;;;;19.77;11.43;;;;;;;-6.33;72.97;98956.72;2224068;80;21243;-76
2021/01/15 06:29:55;;;;;;;22.90;11.77;;;;;;;-6.27;72.96;98958.86;2224624;80;21257;-80
2021/01/15 06:32:56;;;;;;;23.77;11.90;;;;;;;-6.28;72.78;98959.63;2225781;80;21699;-78
2021/01/15 06:35:57;;;;;;;20.47;11.57;;;;;;;-6.28;72.71;98964.70;2224849;80;21113;-78
2021/01/15 06:38:58;;;;;;;17.67;10.43;;;;;;;-6.26;72.71;98969.14;2222885;80;21328;-78
2021/01/15 06:41:59;;;;;;;18.03;10.97;;;;;;;-6.21;72.87;98977.12;2208208;81;21257;-78
2021/01/15 06:45:12;;;;;;;17.43;9.90;;;;;;;-6.18;72.67;98977.36;2206918;81;21281;-77
2021/01/15 06:48:04;;;;;;;18.53;11.07;;;;;;;-6.14;72.73;98976.83;2205770;80;21273;-77
2021/01/15 06:51:05;;;;;;;23.23;14.03;;;;;;;-6.12;72.50;98984.19;2208029;81;21225;-78
2021/01/15 06:54:06;;;;;;;17.87;10.80;;;;;;;-6.08;72.50;98986.59;2207299;81;21280;-79
2021/01/15 06:57:07;;;;;;;19.10;11.77;;;;;;;-6.04;72.34;98993.72;2206529;81;21138;-77
2021/01/15 07:00:09;;;;;;;50.63;19.03;;;;;;;-6.03;72.22;98990.03;2207154;81;21354;-79
2021/01/15 07:03:10;;;;;;;161.87;41.67;;;;;;;-6.08;72.02;98993.83;2206887;81;22006;-78
2021/01/15 07:06:11;;;;;;;50.97;17.30;;;;;;;-6.08;72.19;98987.47;2206788;81;21114;-77
2021/01/15 07:09:12;;;;;;;55.37;20.97;;;;;;;-6.02;72.25;98986.72;2207806;81;21161;-78
2021/01/15 07:12:13;;;;;;;31.73;13.80;;;;;;;-5.95;72.45;98982.61;2207551;81;21443;-77
2021/01/15 07:15:15;;;;;;;17.47;10.93;;;;;;;-5.84;72.28;98979.22;2206660;81;21253;-78
2021/01/15 07:18:16;;;;;;;20.33;12.00;;;;;;;-5.68;72.35;98984.20;2207235;81;21131;-76
2021/01/15 07:21:17;;;;;;;27.50;14.83;;;;;;;-5.50;72.31;98984.33;2207826;81;21297;-77
2021/01/15 07:24:18;;;;;;;371.83;211.53;;;;;;;-5.31;72.04;98982.80;2207303;81;21869;-78
2021/01/15 07:27:19;;;;;;;40.20;19.90;;;;;;;-5.15;71.89;98980.66;2206683;81;21098;-76
2021/01/15 07:30:20;;;;;;;35.90;19.07;;;;;;;-5.00;71.40;98987.28;2207266;81;21276;-78
2021/01/15 07:33:21;;;;;;;31.10;17.93;;;;;;;-4.91;70.83;98982.86;2207190;81;21130;-78
2021/01/15 07:36:22;;;;;;;46.97;23.40;;;;;;;-4.93;70.50;98990.39;2206520;81;21126;-77
2021/01/15 07:39:23;;;;;;;42.53;19.90;;;;;;;-4.93;70.04;98994.59;2206952;81;21316;-77
2021/01/15 07:42:25;;;;;;;76.80;34.73;;;;;;;-4.95;69.82;98992.32;2207046;81;21134;-78
2021/01/15 07:45:26;;;;;;;68.33;32.27;;;;;;;-4.82;69.92;98997.16;2207411;81;21107;-78
2021/01/15 07:48:28;;;;;;;39.17;19.23;;;;;;;-4.73;69.68;98996.95;2207142;81;21241;-78
2021/01/15 07:51:29;;;;;;;58.77;26.63;;;;;;;-4.75;68.86;98994.67;2206299;81;21260;-77
2021/01/15 07:54:30;;;;;;;59.43;28.53;;;;;;;-4.77;69.07;99005.52;2207061;81;21091;-78
2021/01/15 07:57:31;;;;;;;58.10;27.33;;;;;;;-4.66;69.33;99006.81;2206399;81;21606;-76
2021/01/15 08:00:33;;;;;;;66.73;26.90;;;;;;;-4.50;68.95;99011.36;2207068;81;21317;-78
2021/01/15 08:03:34;;;;;;;64.60;30.47;;;;;;;-4.36;68.67;99017.45;2206853;81;21424;-77
2021/01/15 08:06:35;;;;;;;72.53;32.03;;;;;;;-4.21;68.74;99026.23;2207082;81;21225;-76
2021/01/15 08:09:38;;;;;;;79.97;32.47;;;;;;;-4.08;68.18;99031.44;2207012;81;21280;-79
2021/01/15 08:12:40;;;;;;;141.87;61.73;;;;;;;-4.00;67.68;99034.53;2206719;81;21823;-77
2021/01/15 08:15:41;;;;;;;82.93;35.03;;;;;;;-3.91;67.46;99033.52;2206716;81;21229;-77
2021/01/15 08:18:43;;;;;;;77.30;33.33;;;;;;;-3.95;66.54;99046.83;2207138;81;21428;-78
2021/01/15 08:21:44;;;;;;;77.87;32.67;;;;;;;-3.99;67.00;99048.66;2207116;81;21296;-78
2021/01/15 08:24:45;;;;;;;62.00;26.80;;;;;;;-4.04;66.70;99050.00;2207400;81;21101;-77
2021/01/15 08:27:46;;;;;;;58.30;26.43;;;;;;;-4.15;66.36;99051.28;2206357;81;21300;-77
2021/01/15 08:30:47;;;;;;;39.37;20.53;;;;;;;-4.21;67.01;99050.45;2207043;81;21260;-78
2021/01/15 08:33:49;;;;;;;37.30;19.00;;;;;;;-4.14;66.64;99048.84;2206708;81;21286;-78
2021/01/15 08:36:50;;;;;;;35.53;17.70;;;;;;;-4.13;66.72;99050.61;2205465;81;21103;-77
2021/01/15 08:39:53;;;;;;;33.90;15.77;;;;;;;-4.06;67.11;99042.63;2206446;80;21300;-77
2021/01/15 08:42:54;;;;;;;33.73;18.90;;;;;;;-3.86;67.19;99034.73;2206696;81;21916;-78
2021/01/15 08:45:55;;;;;;;33.60;18.50;;;;;;;-3.65;66.40;99047.22;2206181;81;21244;-77
2021/01/15 08:48:56;;;;;;;47.40;22.13;;;;;;;-3.58;66.16;99049.03;2206873;81;21841;-79
2021/01/15 08:51:57;;;;;;;37.07;20.27;;;;;;;-3.59;65.83;99051.47;2207181;81;21182;-77
2021/01/15 08:54:59;;;;;;;37.60;20.27;;;;;;;-3.53;65.33;99054.45;2206477;81;21220;-76
2021/01/15 08:58:00;;;;;;;39.17;20.10;;;;;;;-3.51;65.26;99059.27;2206731;81;21280;-78
2021/01/15 09:01:01;;;;;;;49.87;23.00;;;;;;;-3.58;64.85;99072.38;2206417;81;21630;-78
2021/01/15 09:04:02;;;;;;;50.97;25.03;;;;;;;-3.64;65.65;99064.30;2206018;81;21268;-77
2021/01/15 09:07:04;;;;;;;51.60;26.50;;;;;;;-3.61;64.73;99070.89;2206530;81;21276;-76
2021/01/15 09:10:05;;;;;;;44.10;21.77;;;;;;;-3.59;65.33;99072.77;2206129;81;21280;-78
2021/01/15 09:13:06;;;;;;;48.97;23.93;;;;;;;-3.38;65.47;99075.97;2207236;81;21134;-78
2021/01/15 09:16:16;;;;;;;37.53;21.43;;;;;;;-3.24;64.98;99076.53;2206500;81;21463;-76
2021/01/15 09:19:10;;;;;;;40.43;21.47;;;;;;;-3.16;64.34;99075.78;2205245;80;21723;-77
2021/01/15 09:22:17;;;;;;;31.30;16.93;;;;;;;-3.02;64.15;99083.11;2207357;81;21891;-78
2021/01/15 09:25:14;;;;;;;31.10;16.87;;;;;;;-2.90;64.12;99073.73;2207211;80;21545;-77
2021/01/15 09:28:15;;;;;;;27.87;15.57;;;;;;;-2.78;64.25;99068.55;2207143;81;21173;-76
2021/01/15 09:31:16;;;;;;;30.73;17.07;;;;;;;-2.54;63.94;99070.61;2206825;81;21245;-76
2021/01/15 09:34:17;;;;;;;49.00;24.90;;;;;;;-2.40;63.81;99052.84;2206314;81;21264;-77
2021/01/15 09:37:19;;;;;;;58.17;28.13;;;;;;;-2.20;63.86;99050.30;2206437;81;21294;-77
2021/01/15 09:40:20;;;;;;;63.77;28.17;;;;;;;-1.93;63.29;99056.30;2208753;80;21288;-77
2021/01/15 09:43:21;;;;;;;39.70;19.90;;;;;;;-1.75;62.40;99072.81;2214041;80;21122;-77
2021/01/15 09:46:22;;;;;;;39.63;21.97;;;;;;;-1.79;62.52;99073.80;2213926;80;21217;-76
2021/01/15 09:49:23;;;;;;;65.40;31.27;;;;;;;-1.75;62.06;99070.25;2214013;80;21125;-78
2021/01/15 09:52:24;;;;;;;44.10;22.80;;;;;;;-1.81;61.35;99072.82;2214393;80;21261;-77
2021/01/15 09:55:25;;;;;;;54.63;25.80;;;;;;;-1.87;61.77;99069.88;2214364;80;21225;-76
2021/01/15 09:58:27;;;;;;;52.00;26.83;;;;;;;-1.68;62.52;99072.45;2214541;80;21249;-79
2021/01/15 10:01:28;;;;;;;49.83;24.17;;;;;;;-1.50;61.14;99063.75;2215026;80;21280;-77
2021/01/15 10:04:32;;;;;;;48.73;23.20;;;;;;;-1.48;61.08;99059.61;2215554;80;21458;-79
2021/01/15 10:07:34;;;;;;;67.80;29.67;;;;;;;-1.31;61.09;99058.97;2214496;80;21524;-77
2021/01/15 10:10:35;;;;;;;38.00;20.73;;;;;;;-1.22;61.17;99056.48;2214658;80;21248;-78
2021/01/15 10:13:36;;;;;;;43.00;22.97;;;;;;;-1.01;61.35;99054.82;2214839;80;21126;-78
2021/01/15 10:16:37;;;;;;;34.03;20.33;;;;;;;-0.87;61.09;99050.52;2214098;80;21432;-76
2021/01/15 10:19:38;;;;;;;27.50;16.23;;;;;;;-0.84;60.90;99060.11;2213651;80;21545;-77
2021/01/15 10:22:39;;;;;;;21.97;13.60;;;;;;;-0.89;60.01;99053.78;2214494;80;21151;-79
2021/01/15 10:25:40;;;;;;;22.53;14.67;;;;;;;-0.84;60.24;99040.48;2214594;80;21249;-76
2021/01/15 10:28:41;;;;;;;20.97;13.73;;;;;;;-0.74;60.58;99036.39;2214866;80;21142;-78
2021/01/15 10:31:42;;;;;;;23.47;15.40;;;;;;;-0.60;59.38;99036.31;2215367;80;21099;-77
2021/01/15 10:34:43;;;;;;;32.20;18.07;;;;;;;-0.63;59.83;99042.15;2214577;80;21260;-78
2021/01/15 10:37:44;;;;;;;31.67;17.30;;;;;;;-0.65;58.06;99047.58;2214517;80;21585;-77
2021/01/15 10:40:45;;;;;;;27.50;16.20;;;;;;;-0.92;57.70;99050.64;2212339;79;21165;-77
2021/01/15 10:43:46;;;;;;;38.10;19.30;;;;;;;-1.14;56.77;99049.75;2207735;81;21161;-79
2021/01/15 10:46:49;;;;;;;36.90;19.30;;;;;;;-1.24;58.19;99049.10;2206737;81;21594;-77
2021/01/15 10:49:50;;;;;;;60.47;26.70;;;;;;;-1.32;58.12;99046.08;2206718;81;21570;-79
2021/01/15 10:52:51;;;;;;;66.30;29.53;;;;;;;-1.43;57.86;99044.53;2207519;81;21170;-78
2021/01/15 10:55:52;;;;;;;41.87;21.27;;;;;;;-1.51;58.26;99044.06;2207517;81;21260;-78
2021/01/15 10:58:53;;;;;;;35.97;19.40;;;;;;;-1.51;59.25;99035.50;2207413;81;21121;-78
2021/01/15 11:01:54;;;;;;;49.73;22.63;;;;;;;-1.40;59.03;99038.32;2206888;81;21786;-78
2021/01/15 11:04:57;;;;;;;39.70;20.07;;;;;;;-1.34;57.78;99043.81;2206722;81;21138;-78
2021/01/15 11:07:59;;;;;;;38.80;20.40;;;;;;;-1.37;58.41;99034.27;2206674;81;21257;-78
2021/01/15 11:11:00;;;;;;;46.33;21.80;;;;;;;-1.34;58.80;99030.62;2207086;81;21272;-78
2021/01/15 11:14:01;;;;;;;47.27;22.30;;;;;;;-1.31;58.19;99025.69;2207117;81;21138;-77
2021/01/15 11:17:02;;;;;;;71.47;30.23;;;;;;;-1.27;58.17;99028.03;2206839;81;21260;-77
2021/01/15 11:20:03;;;;;;;79.77;32.13;;;;;;;-1.40;56.68;99028.08;2208047;81;21443;-79
2021/01/15 11:23:04;;;;;;;97.37;35.03;;;;;;;-1.50;57.31;99027.91;2207531;81;21551;-79
2021/01/15 11:26:05;;;;;;;85.70;30.47;;;;;;;-1.49;55.98;99030.08;2207550;81;21083;-77
2021/01/15 11:29:06;;;;;;;79.40;31.73;;;;;;;-1.48;56.89;99028.00;2207229;81;21268;-79
2021/01/15 11:32:09;;;;;;;52.53;22.00;;;;;;;-1.44;56.57;99025.72;2207434;81;21233;-78
2021/01/15 11:35:11;;;;;;;59.13;24.67;;;;;;;-1.57;54.77;99022.31;2208699;81;21196;-77
2021/01/15 11:38:12;;;;;;;64.50;27.30;;;;;;;-1.33;62.17;99020.86;2207441;81;21581;-78
2021/01/15 11:41:13;;;;;;;65.03;27.80;;;;;;;-1.27;55.88;99015.23;2207761;80;21162;-78
2021/01/15 11:44:14;;;;;;;36.60;18.57;;;;;;;-1.53;56.14;99022.59;2207510;81;21284;-77
2021/01/15 11:47:15;;;;;;;35.13;19.20;;;;;;;-1.80;57.25;99023.02;2207694;81;21241;-78
2021/01/15 11:50:16;;;;;;;35.03;18.27;;;;;;;-1.88;57.59;99016.54;2207072;81;21098;-77
2021/01/15 11:53:17;;;;;;;42.93;21.70;;;;;;;-1.96;58.02;99013.50;2208184;81;21170;-78
2021/01/15 11:56:18;;;;;;;41.77;20.83;;;;;;;-1.98;58.58;99007.40;2207755;81;21130;-78
2021/01/15 11:59:19;;;;;;;45.57;23.00;;;;;;;-2.08;58.49;99007.61;2206280;81;21300;-78
2021/01/15 12:02:20;;;;;;;48.17;22.93;;;;;;;-2.15;58.52;98993.94;2207440;81;21122;-78
2021/01/15 12:05:21;;;;;;;36.60;18.43;;;;;;;-2.18;58.80;98991.19;2208089;81;21236;-79
2021/01/15 12:08:22;;;;;;;45.10;22.10;;;;;;;-2.21;59.20;98989.71;2207658;81;21820;-77
2021/01/15 12:11:23;;;;;;;48.53;24.30;;;;;;;-2.13;59.76;98987.64;2207434;81;21119;-78
2021/01/15 12:14:25;;;;;;;43.60;22.03;;;;;;;-2.10;59.78;98986.16;2207725;81;21147;-79
2021/01/15 12:17:26;;;;;;;39.60;20.30;;;;;;;-2.09;60.63;98981.93;2208730;81;21102;-78
2021/01/15 12:20:27;;;;;;;47.70;24.57;;;;;;;-2.06;60.57;98984.29;2208680;81;21308;-79
2021/01/15 12:23:30;;;;;;;40.90;21.33;;;;;;;-2.01;61.11;98979.06;2207834;81;21098;-79
2021/01/15 12:26:32;;;;;;;54.43;26.43;;;;;;;-1.97;59.74;98977.59;2207832;81;21146;-78
2021/01/15 12:29:33;;;;;;;48.37;24.27;;;;;;;-2.08;60.80;98977.31;2208175;81;21137;-78
2021/01/15 12:32:34;;;;;;;55.07;27.17;;;;;;;-2.08;60.14;98977.31;2207725;81;21261;-77
2021/01/15 12:35:35;;;;;;;57.40;28.03;;;;;;;-2.08;59.84;98973.08;2207047;81;21185;-78
2021/01/15 12:38:36;;;;;;;50.13;25.63;;;;;;;-2.14;59.57;98970.13;2207205;81;21272;-78
2021/01/15 12:41:37;;;;;;;61.23;29.87;;;;;;;-2.27;60.57;98957.36;2210098;80;21292;-77
2021/01/15 12:44:38;;;;;;;74.17;33.73;;;;;;;-2.09;62.15;98959.80;2214078;80;21388;-77
2021/01/15 12:47:39;;;;;;;72.30;35.13;;;;;;;-2.07;60.94;98975.23;2213414;80;21661;-77
2021/01/15 12:50:41;;;;;;;82.17;36.40;;;;;;;-2.23;60.95;98973.39;2213318;80;21252;-79
2021/01/15 12:53:42;;;;;;;90.40;44.10;;;;;;;-2.25;61.29;98962.17;2213652;80;21241;-77
2021/01/15 12:56:43;;;;;;;79.47;37.93;;;;;;;-2.18;61.75;98966.89;2213146;80;21248;-77
2021/01/15 12:59:46;;;;;;;70.23;33.27;;;;;;;-2.04;62.13;98963.53;2212865;80;21177;-77
2021/01/15 13:02:47;;;;;;;72.40;33.63;;;;;;;-2.05;61.60;98956.64;2211927;80;21114;-78
2021/01/15 13:05:48;;;;;;;63.67;30.30;;;;;;;-2.03;61.77;98958.91;2211695;80;21280;-78
2021/01/15 13:08:49;;;;;;;58.80;28.13;;;;;;;-2.00;61.39;98952.70;2211876;80;21280;-78
2021/01/15 13:11:51;;;;;;;66.33;33.70;;;;;;;-2.05;60.89;98959.59;2211588;80;21296;-77
2021/01/15 13:14:52;;;;;;;61.60;31.20;;;;;;;-2.13;60.88;98950.16;2212299;80;21280;-77
2021/01/15 13:17:53;;;;;;;66.83;32.23;;;;;;;-2.22;60.68;98953.81;2212511;80;21130;-76
2021/01/15 13:20:54;;;;;;;63.70;31.50;;;;;;;-2.33;61.05;98958.25;2213714;80;21859;-77
2021/01/15 13:23:55;;;;;;;71.13;33.23;;;;;;;-2.43;60.87;98961.01;2213285;80;21122;-77
2021/01/15 13:26:56;;;;;;;55.30;26.63;;;;;;;-2.44;60.84;98959.23;2213509;80;21239;-78
2021/01/15 13:29:58;;;;;;;63.90;28.03;;;;;;;-2.46;61.01;98963.37;2213555;80;21134;-77
2021/01/15 13:32:59;;;;;;;61.90;28.43;;;;;;;-2.57;60.27;98968.67;2214039;80;21176;-80
2021/01/15 13:36:00;;;;;;;59.10;27.67;;;;;;;-2.72;59.22;98969.31;2212892;80;21261;-78
2021/01/15 13:39:01;;;;;;;68.53;30.67;;;;;;;-2.81;60.37;98966.16;2212625;80;21258;-76
2021/01/15 13:42:02;;;;;;;56.87;26.50;;;;;;;-2.81;60.25;98958.11;2210469;80;21265;-78
2021/01/15 13:45:03;;;;;;;75.07;31.70;;;;;;;-2.83;60.84;98953.28;2206863;81;21134;-78
2021/01/15 13:48:04;;;;;;;62.97;30.20;;;;;;;-2.84;61.02;98950.23;2207187;81;21269;-77
2021/01/15 13:51:12;;;;;;;60.60;27.23;;;;;;;-2.83;60.87;98957.12;2207376;81;21241;-77
2021/01/15 13:54:08;;;;;;;63.83;28.93;;;;;;;-2.04;64.07;98952.02;2207348;80;21555;-78